Time;durP1;ratioP1;P1;durP2;ratioP2;P2;SDS_P1;SDS_P2;PMS_P1;PMS_P2;Temp;Humidity;BMP_temperature;BMP_pressure;BME280_temperature;BME280_humidity;BME280_pressure;Samples;Min_cycle;Max_cycle;Signal;HPM_P1;HPM_P2
2021/11/25 00:00:24;;;;;;;14.88;11.10;;;;;;;-1.81;100.00;92434.06;2112379;28;20016;-91
2021/11/25 00:02:08;;;;;;;14.65;11.30;;;;;;;-1.87;100.00;92434.75;2098596;28;20024;-91
2021/11/25 00:03:09;;;;;;;14.57;10.90;;;;;;;-1.93;100.00;92428.28;2107356;28;20047;-87
2021/11/25 00:04:09;;;;;;;14.38;9.93;;;;;;;-2.04;100.00;92428.91;2093616;28;20024;-87
2021/11/25 00:05:11;;;;;;;14.27;10.48;;;;;;;-1.88;100.00;92422.78;2090832;28;20052;-88
2021/11/25 00:06:11;;;;;;;20.45;11.55;;;;;;;-1.80;100.00;92421.72;2087118;28;20108;-89
2021/11/25 00:07:13;;;;;;;16.58;11.30;;;;;;;-1.94;100.00;92422.31;2090396;28;20025;-87
2021/11/25 00:08:14;;;;;;;14.68;11.05;;;;;;;-1.80;100.00;92419.13;2090786;28;20020;-88
2021/11/25 00:09:15;;;;;;;14.52;10.60;;;;;;;-1.65;100.00;92417.44;2111017;28;20019;-89
2021/11/25 00:10:16;;;;;;;17.13;10.73;;;;;;;-1.71;100.00;92426.72;2115080;28;20046;-87
2021/11/25 00:11:17;;;;;;;14.65;10.60;;;;;;;-1.84;100.00;92418.34;2098835;28;20028;-90
2021/11/25 00:12:18;;;;;;;15.10;10.50;;;;;;;-1.71;100.00;92426.72;2098768;28;20381;-88
2021/11/25 00:13:19;;;;;;;20.08;10.98;;;;;;;-1.84;100.00;92421.72;2098574;28;20024;-88
2021/11/25 00:14:20;;;;;;;17.73;11.40;;;;;;;-1.88;100.00;92415.66;2094863;28;20381;-90
2021/11/25 00:15:21;;;;;;;17.65;10.98;;;;;;;-1.85;100.00;92414.19;2094169;28;20020;-88
2021/11/25 00:16:22;;;;;;;16.15;10.18;;;;;;;-1.96;100.00;92416.69;2098815;28;20025;-89
2021/11/25 00:17:23;;;;;;;14.85;10.75;;;;;;;-1.85;100.00;92414.19;2100057;28;20024;-87
2021/11/25 00:18:24;;;;;;;14.13;10.88;;;;;;;-1.81;100.00;92412.38;2106854;28;20116;-90
2021/11/25 00:19:25;;;;;;;13.77;10.85;;;;;;;-1.90;100.00;92410.00;2107110;28;20020;-90
2021/11/25 00:20:26;;;;;;;14.02;10.32;;;;;;;-1.67;100.00;92411.78;2098568;28;20055;-87
2021/11/25 00:21:27;;;;;;;15.07;11.27;;;;;;;-1.89;100.00;92408.94;2098624;28;20032;-88
2021/11/25 00:22:39;;;;;;;15.48;10.48;;;;;;;-1.92;100.00;92416.72;2115323;28;20031;-88
2021/11/25 00:23:43;;;;;;;13.35;10.13;;;;;;;-1.95;100.00;92409.56;2107047;28;20024;-87
2021/11/25 00:24:49;;;;;;;14.48;10.10;;;;;;;-1.75;100.00;92407.59;2091569;28;20021;-86
2021/11/25 00:25:50;;;;;;;16.92;10.18;;;;;;;-1.91;100.00;92405.91;2091605;28;20477;-88
2021/11/25 00:26:51;;;;;;;13.95;10.15;;;;;;;-1.88;100.00;92407.06;2098719;28;20111;-88
2021/11/25 00:27:53;;;;;;;11.65;9.40;;;;;;;-1.97;100.00;92406.56;2090201;28;20666;-89
2021/11/25 00:28:54;;;;;;;13.52;10.45;;;;;;;-1.93;100.00;92402.09;2090557;28;20028;-86
2021/11/25 00:29:55;;;;;;;12.80;9.27;;;;;;;-1.83;100.00;92406.75;2098726;28;20047;-90
2021/11/25 00:30:58;;;;;;;12.75;9.60;;;;;;;-1.89;100.00;92402.91;2097286;28;20020;-89
2021/11/25 00:31:59;;;;;;;17.75;9.43;;;;;;;-1.97;100.00;92409.19;2090469;28;20033;-87
2021/11/25 00:33:00;;;;;;;12.68;9.88;;;;;;;-2.01;100.00;92408.38;2082021;28;20021;-87
2021/11/25 00:34:02;;;;;;;12.55;10.15;;;;;;;-1.96;100.00;92408.06;2082007;28;20056;-89
2021/11/25 00:35:04;;;;;;;14.30;8.85;;;;;;;-2.08;100.00;92407.16;2082101;28;20026;-88
2021/11/25 00:36:05;;;;;;;12.80;8.88;;;;;;;-1.98;100.00;92399.81;2082386;28;20029;-88
2021/11/25 00:37:06;;;;;;;14.15;10.13;;;;;;;-1.76;100.00;92409.44;2082518;28;20109;-90
2021/11/25 00:38:08;;;;;;;16.27;9.35;;;;;;;-1.95;100.00;92399.09;2090285;28;20036;-87
2021/11/25 00:39:08;;;;;;;13.10;9.15;;;;;;;-1.89;100.00;92402.91;2090301;28;20393;-90
2021/11/25 00:40:13;;;;;;;13.90;9.25;;;;;;;-2.07;100.00;92400.06;2090058;28;20025;-90
2021/11/25 00:41:15;;;;;;;13.13;9.35;;;;;;;-2.09;100.00;92395.19;2099435;28;20138;-88
2021/11/25 00:42:16;;;;;;;11.52;8.90;;;;;;;-2.08;100.00;92403.78;2098201;28;20786;-87
2021/11/25 00:43:20;;;;;;;13.60;8.80;;;;;;;-1.95;100.00;92399.84;2095898;28;20029;-88
2021/11/25 00:44:21;;;;;;;11.50;8.57;;;;;;;-1.95;100.00;92394.63;2107239;28;20024;-89
2021/11/25 00:45:22;;;;;;;11.75;8.95;;;;;;;-2.09;100.00;92394.44;2114473;28;20028;-86
2021/11/25 00:46:23;;;;;;;11.30;8.45;;;;;;;-1.80;100.00;92390.31;2094897;28;20020;-90
2021/11/25 00:47:26;;;;;;;13.15;9.23;;;;;;;-1.97;100.00;92393.47;2098307;28;20028;-90
2021/11/25 00:48:32;;;;;;;14.23;9.35;;;;;;;-2.06;100.00;92391.13;2090546;28;20409;-87
2021/11/25 00:49:33;;;;;;;14.77;8.02;;;;;;;-2.06;100.00;92397.09;2101470;28;20029;-90
2021/11/25 00:50:34;;;;;;;15.82;8.98;;;;;;;-2.01;100.00;92396.03;2100075;28;20017;-89
2021/11/25 00:51:37;;;;;;;15.32;9.35;;;;;;;-2.12;100.00;92398.50;2096754;28;20413;-90
2021/11/25 00:52:38;;;;;;;12.15;8.88;;;;;;;-2.14;100.00;92390.25;2106750;28;20427;-90
2021/11/25 00:53:44;;;;;;;16.50;8.70;;;;;;;-2.00;100.00;92392.31;2106962;28;20031;-91
2021/11/25 00:54:49;;;;;;;11.77;8.88;;;;;;;-1.99;100.00;92387.81;2107240;28;20020;-87
2021/11/25 00:55:50;;;;;;;12.88;8.70;;;;;;;-2.04;100.00;92383.66;2098996;28;20020;-88
2021/11/25 00:56:51;;;;;;;11.90;9.13;;;;;;;-2.04;100.00;92381.03;2099074;28;20501;-87
2021/11/25 00:57:52;;;;;;;19.48;8.80;;;;;;;-2.10;100.00;92385.84;2114815;28;20096;-87
2021/11/25 00:58:53;;;;;;;12.27;9.15;;;;;;;-2.22;100.00;92380.78;2098174;28;20055;-88
2021/11/25 00:59:54;;;;;;;11.80;8.93;;;;;;;-2.05;100.00;92382.16;2094957;28;20069;-87
2021/11/25 01:00:55;;;;;;;12.73;8.60;;;;;;;-2.06;100.00;92383.25;2090344;28;20071;-92
2021/11/25 01:01:56;;;;;;;10.98;8.05;;;;;;;-2.15;100.00;92386.13;2098227;28;20024;-90
2021/11/25 01:02:57;;;;;;;15.48;9.13;;;;;;;-2.10;100.00;92390.31;2106418;28;20088;-88
2021/11/25 01:03:58;;;;;;;13.23;8.30;;;;;;;-1.98;100.00;92384.84;2106617;28;20829;-87
2021/11/25 01:04:59;;;;;;;11.93;8.77;;;;;;;-2.07;100.00;92390.34;2106670;28;20027;-88
2021/11/25 01:06:01;;;;;;;10.63;8.80;;;;;;;-2.18;100.00;92380.84;2098284;28;20090;-90
2021/11/25 01:07:06;;;;;;;11.02;8.18;;;;;;;-2.06;100.00;92384.00;2091326;28;20029;-91
2021/11/25 01:08:11;;;;;;;9.93;7.68;;;;;;;-2.13;100.00;92391.00;2096783;28;20556;-89
2021/11/25 01:09:16;;;;;;;11.85;8.48;;;;;;;-1.97;100.00;92381.13;2094600;28;20028;-86
2021/11/25 01:10:23;;;;;;;10.85;8.15;;;;;;;-2.12;100.00;92385.41;2098445;28;20397;-88
2021/11/25 01:11:25;;;;;;;10.52;8.50;;;;;;;-2.16;100.00;92379.38;2100098;28;20021;-89
2021/11/25 01:12:28;;;;;;;10.85;8.07;;;;;;;-2.13;100.00;92380.53;2098176;28;20027;-90
2021/11/25 01:13:29;;;;;;;10.63;8.45;;;;;;;-2.16;100.00;92381.25;2090460;28;20028;-88
2021/11/25 01:14:33;;;;;;;13.45;8.85;;;;;;;-2.17;100.00;92377.88;2106664;28;20380;-87
2021/11/25 01:15:35;;;;;;;11.20;8.35;;;;;;;-2.12;100.00;92380.19;2106608;28;20088;-87
2021/11/25 01:16:37;;;;;;;11.15;8.23;;;;;;;-2.07;100.00;92377.25;2106815;28;20102;-91
2021/11/25 01:17:40;;;;;;;10.00;7.70;;;;;;;-2.19;100.00;92380.09;2097600;28;20024;-86
2021/11/25 01:18:46;;;;;;;12.85;8.73;;;;;;;-2.11;100.00;92376.47;2094863;28;20062;-89
2021/11/25 01:19:46;;;;;;;9.93;7.93;;;;;;;-2.09;100.00;92376.84;2098946;28;20102;-89
2021/11/25 01:20:49;;;;;;;10.88;8.30;;;;;;;-2.04;100.00;92373.19;2103873;28;20110;-88
2021/11/25 01:21:51;;;;;;;11.27;8.27;;;;;;;-2.13;100.00;92372.69;2090092;28;20386;-89
2021/11/25 01:22:52;;;;;;;13.07;8.32;;;;;;;-2.21;100.00;92371.81;2098270;28;20104;-89
2021/11/25 01:23:53;;;;;;;12.50;8.43;;;;;;;-2.29;100.00;92367.59;2098779;28;20063;-90
2021/11/25 01:25:04;;;;;;;12.52;8.90;;;;;;;-2.24;100.00;92369.91;2106471;28;20028;-90
2021/11/25 01:26:05;;;;;;;10.07;8.00;;;;;;;-2.26;100.00;92374.00;2100993;28;20059;-90
2021/11/25 01:27:06;;;;;;;9.70;7.75;;;;;;;-2.21;100.00;92369.22;2090017;28;20029;-88
2021/11/25 01:28:12;;;;;;;11.43;8.63;;;;;;;-2.33;100.00;92366.78;2089925;28;20025;-91
2021/11/25 01:29:17;;;;;;;9.52;7.93;;;;;;;-2.24;100.00;92372.53;2090990;28;20028;-88
2021/11/25 01:30:23;;;;;;;10.25;7.97;;;;;;;-2.19;100.00;92369.63;2098389;28;20522;-88
2021/11/25 01:31:26;;;;;;;10.32;7.75;;;;;;;-2.20;100.00;92362.88;2099341;28;20066;-88
2021/11/25 01:32:31;;;;;;;10.93;8.60;;;;;;;-2.28;100.00;92363.91;2098434;28;20032;-87
2021/11/25 01:33:37;;;;;;;10.00;7.75;;;;;;;-2.25;100.00;92362.41;2090749;28;20029;-88
2021/11/25 01:34:39;;;;;;;10.40;7.88;;;;;;;-2.35;100.00;92361.16;2099302;28;20036;-86
2021/11/25 01:35:50;;;;;;;10.38;8.57;;;;;;;-2.28;100.00;92356.78;2100293;28;20085;-87
2021/11/25 01:36:54;;;;;;;;;;;;;;;-2.24;100.00;92353.47;2088830;28;20055;-88
2021/11/25 01:37:55;;;;;;;9.80;6.82;;;;;;;-2.28;100.00;92361.28;2098533;28;19908;-87
2021/11/25 01:38:56;;;;;;;13.00;7.72;;;;;;;-2.29;100.00;92357.88;2098017;28;20112;-88
2021/11/25 01:39:57;;;;;;;11.05;8.32;;;;;;;-2.38;100.00;92357.38;2106269;28;20031;-87
2021/11/25 01:40:59;;;;;;;14.35;8.55;;;;;;;-2.22;100.00;92359.84;2106401;28;20027;-88
2021/11/25 01:42:00;;;;;;;14.35;8.02;;;;;;;-2.16;100.00;92355.81;2097986;28;20563;-86
2021/11/25 01:43:01;;;;;;;12.00;7.68;;;;;;;-2.27;100.00;92357.56;2095793;28;20394;-87
2021/11/25 01:44:07;;;;;;;11.93;8.90;;;;;;;-2.23;100.00;92349.75;2097882;28;20040;-89
2021/11/25 01:45:36;;;;;;;11.23;8.50;;;;;;;-2.25;100.00;92344.84;2098513;28;20056;-89
2021/11/25 01:46:38;;;;;;;9.52;7.43;;;;;;;-2.46;100.00;92355.78;2101664;28;20032;-87
2021/11/25 01:47:47;;;;;;;11.77;7.95;;;;;;;-2.38;100.00;92356.63;2097703;28;20120;-88
2021/11/25 01:48:49;;;;;;;13.65;7.90;;;;;;;-2.32;100.00;92355.25;2106289;28;20064;-89
2021/11/25 01:49:50;;;;;;;12.52;8.00;;;;;;;-2.23;100.00;92353.13;2097839;28;20020;-89
2021/11/25 01:50:51;;;;;;;14.32;7.82;;;;;;;-2.35;100.00;92340.25;2089559;28;20049;-88
2021/11/25 01:51:52;;;;;;;11.93;8.43;;;;;;;-2.32;100.00;92353.38;2097303;28;20519;-89
2021/11/25 01:52:56;;;;;;;10.85;8.30;;;;;;;-2.11;100.00;92352.91;2106233;28;20028;-90
2021/11/25 01:53:57;;;;;;;12.27;8.57;;;;;;;-2.38;100.00;92351.41;2097526;28;20099;-90
2021/11/25 01:54:58;;;;;;;12.60;7.95;;;;;;;-2.32;100.00;92339.53;2089780;28;20035;-89
2021/11/25 01:56:00;;;;;;;10.25;8.13;;;;;;;-2.01;100.00;92348.16;2097784;28;20028;-90
2021/11/25 01:57:01;;;;;;;10.32;8.15;;;;;;;-2.24;100.00;92341.13;2089778;28;20091;-86
2021/11/25 01:58:02;;;;;;;17.48;8.52;;;;;;;-2.23;100.00;92332.19;2089539;28;20167;-87
2021/11/25 01:59:03;;;;;;;10.00;8.15;;;;;;;-2.26;100.00;92347.84;2089442;28;20044;-90
2021/11/25 02:00:14;;;;;;;14.20;8.15;;;;;;;-2.36;100.00;92338.72;2106412;28;20027;-88
2021/11/25 02:01:17;;;;;;;17.77;7.50;;;;;;;-2.41;100.00;92331.94;2113132;28;20479;-87
2021/11/25 02:02:19;;;;;;;10.73;7.70;;;;;;;-2.37;100.00;92337.22;2106957;28;20066;-89
2021/11/25 02:03:23;;;;;;;10.95;8.32;;;;;;;-2.38;100.00;92340.94;2097660;28;20024;-87
2021/11/25 02:04:26;;;;;;;14.45;7.72;;;;;;;-2.30;100.00;92334.69;2106612;28;20016;-89
2021/11/25 02:05:27;;;;;;;9.88;7.50;;;;;;;-2.42;100.00;92333.03;2106550;28;20041;-88
2021/11/25 02:06:39;;;;;;;12.48;8.00;;;;;;;-2.41;100.00;92341.66;2114588;27;20437;-88
2021/11/25 02:07:40;;;;;;;13.20;7.55;;;;;;;-2.44;100.00;92337.13;2114408;28;20375;-90
2021/11/25 02:08:42;;;;;;;13.85;7.68;;;;;;;-2.45;100.00;92339.00;2106235;28;20024;-92
2021/11/25 02:09:43;;;;;;;11.65;8.45;;;;;;;-2.40;100.00;92338.69;2106232;28;20138;-88
2021/11/25 02:10:47;;;;;;;11.07;8.07;;;;;;;-2.37;100.00;92337.22;2105878;28;20500;-89
2021/11/25 02:11:53;;;;;;;17.10;8.15;;;;;;;-2.49;100.00;92329.59;2098894;28;20078;-88
2021/11/25 02:12:55;;;;;;;12.63;7.63;;;;;;;-2.41;100.00;92333.81;2100231;28;20502;-90
2021/11/25 02:13:55;;;;;;;12.07;7.60;;;;;;;-2.49;100.00;92332.19;2089680;28;20032;-87
2021/11/25 02:14:56;;;;;;;10.95;8.20;;;;;;;-2.36;100.00;92330.88;2097942;28;20047;-89
2021/11/25 02:15:58;;;;;;;12.82;8.88;;;;;;;-2.58;100.00;92329.84;2097947;28;20024;-90
2021/11/25 02:16:59;;;;;;;12.30;8.23;;;;;;;-2.33;100.00;92324.94;2097970;28;20488;-88
2021/11/25 02:18:03;;;;;;;10.02;7.15;;;;;;;-2.42;100.00;92329.66;2106238;28;20032;-87
2021/11/25 02:19:04;;;;;;;10.65;8.00;;;;;;;-2.43;100.00;92323.69;2098297;28;20048;-88
2021/11/25 02:20:08;;;;;;;10.45;7.53;;;;;;;-2.38;100.00;92326.00;2089479;28;20024;-89
2021/11/25 02:21:09;;;;;;;10.75;7.93;;;;;;;-2.34;100.00;92328.66;2098423;28;20472;-91
2021/11/25 02:22:11;;;;;;;9.07;7.45;;;;;;;-2.46;100.00;92321.75;2106211;28;20059;-87
2021/11/25 02:23:14;;;;;;;12.50;8.35;;;;;;;-2.42;100.00;92327.03;2114375;28;20030;-90
2021/11/25 02:24:15;;;;;;;9.52;7.70;;;;;;;-2.48;100.00;92318.75;2097670;28;20052;-89
2021/11/25 02:25:16;;;;;;;10.80;8.05;;;;;;;-2.39;100.00;92326.34;2089545;28;20058;-90
2021/11/25 02:26:17;;;;;;;11.15;7.57;;;;;;;-2.48;100.00;92315.38;2089735;28;20040;-87
2021/11/25 02:27:23;;;;;;;9.65;7.97;;;;;;;-2.38;100.00;92323.38;2097735;28;20031;-89
2021/11/25 02:28:30;;;;;;;11.63;8.23;;;;;;;-2.36;100.00;92334.25;2106722;28;20023;-89
2021/11/25 02:29:31;;;;;;;12.65;7.85;;;;;;;-2.44;100.00;92326.66;2113034;28;20035;-87
2021/11/25 02:30:34;;;;;;;9.10;7.47;;;;;;;-2.42;100.00;92324.44;2114461;28;20519;-88
2021/11/25 02:31:42;;;;;;;10.15;7.90;;;;;;;-2.49;100.00;92317.25;2110005;28;20092;-88
2021/11/25 02:32:48;;;;;;;13.85;7.22;;;;;;;-2.43;100.00;92322.94;2115390;28;20468;-86
2021/11/25 02:33:55;;;;;;;10.60;7.70;;;;;;;-2.45;100.00;92318.06;2102159;28;20440;-87
2021/11/25 02:34:57;;;;;;;9.07;7.10;;;;;;;-2.40;100.00;92319.63;2100607;28;20481;-88
2021/11/25 02:35:59;;;;;;;10.77;7.32;;;;;;;-2.48;100.00;92315.38;2106072;28;20125;-90
2021/11/25 02:37:00;;;;;;;14.77;7.57;;;;;;;-2.60;100.00;92309.25;2098272;28;20023;-89
2021/11/25 02:38:01;;;;;;;10.30;7.40;;;;;;;-2.58;100.00;92314.88;2106064;28;20476;-88
2021/11/25 02:39:03;;;;;;;12.10;7.78;;;;;;;-2.66;100.00;92309.91;2114579;28;20141;-87
2021/11/25 02:40:16;;;;;;;9.65;7.45;;;;;;;-2.66;100.00;92300.19;2109614;28;20020;-86
2021/11/25 02:41:17;;;;;;;11.48;7.15;;;;;;;-2.54;100.00;92307.84;2114562;28;20118;-87
2021/11/25 02:42:18;;;;;;;10.43;7.75;;;;;;;-2.50;100.00;92304.50;2111571;28;20046;-86
2021/11/25 02:43:25;;;;;;;10.18;7.30;;;;;;;-2.49;100.00;92306.78;2099097;28;20026;-89
2021/11/25 02:44:26;;;;;;;10.48;6.75;;;;;;;-2.54;100.00;92307.09;2099479;28;20421;-89
2021/11/25 02:45:30;;;;;;;9.52;7.32;;;;;;;-2.64;100.00;92305.81;2106023;28;20115;-90
2021/11/25 02:46:31;;;;;;;8.63;7.25;;;;;;;-2.57;100.00;92302.56;2105809;28;20020;-89
2021/11/25 02:47:31;;;;;;;11.23;7.78;;;;;;;-2.67;100.00;92306.53;2099394;28;20021;-88
2021/11/25 02:50:29;;;;;;;8.57;6.20;;;;;;;-2.61;100.00;92297.28;2122570;28;20026;-88
2021/11/25 02:51:35;;;;;;;8.38;6.75;;;;;;;-2.54;100.00;92305.22;2114154;28;20044;-88
2021/11/25 02:52:40;;;;;;;7.95;6.43;;;;;;;-2.62;100.00;92310.72;2098171;28;20178;-87
2021/11/25 02:53:41;;;;;;;8.43;6.55;;;;;;;-2.65;100.00;92306.19;2107102;28;20020;-88
2021/11/25 02:54:43;;;;;;;8.35;6.50;;;;;;;-2.78;100.00;92308.25;2102384;28;20362;-87
2021/11/25 02:55:44;;;;;;;9.80;6.75;;;;;;;-2.74;100.00;92295.97;2106268;28;20020;-91
2021/11/25 02:56:51;;;;;;;9.48;7.20;;;;;;;-2.80;100.00;92300.75;2105975;28;20050;-89
2021/11/25 02:57:52;;;;;;;8.73;6.60;;;;;;;-2.78;100.00;92298.53;2097568;28;20025;-88
2021/11/25 02:58:56;;;;;;;8.20;6.90;;;;;;;-2.81;100.00;92299.25;2089392;28;20059;-87
2021/11/25 02:59:57;;;;;;;7.72;6.55;;;;;;;-2.81;100.00;92296.63;2097924;28;20047;-88
2021/11/25 03:01:12;;;;;;;9.85;7.35;;;;;;;-2.86;100.00;92296.16;2089406;28;20070;-87
2021/11/25 03:02:21;;;;;;;8.90;6.70;;;;;;;-2.77;100.00;92294.06;2086417;28;20116;-89
2021/11/25 03:03:22;;;;;;;8.85;6.97;;;;;;;-2.77;100.00;92301.91;2092257;28;20505;-90
2021/11/25 03:04:23;;;;;;;8.80;6.32;;;;;;;-2.78;100.00;92295.91;2090956;28;20469;-86
2021/11/25 03:05:24;;;;;;;8.48;6.80;;;;;;;-2.86;100.00;92290.94;2091012;28;20051;-87
2021/11/25 03:06:25;;;;;;;8.38;7.03;;;;;;;-2.89;100.00;92289.03;2091009;28;20843;-88
2021/11/25 03:07:26;;;;;;;10.10;7.85;;;;;;;-2.99;100.00;92297.47;2087192;28;20066;-88
2021/11/25 03:08:27;;;;;;;8.43;6.57;;;;;;;-3.12;100.00;92287.19;2093614;28;20566;-88
2021/11/25 03:09:28;;;;;;;8.95;7.30;;;;;;;-3.21;100.00;92289.28;2107363;28;20082;-89
2021/11/25 03:10:49;;;;;;;11.00;6.90;;;;;;;-3.11;100.00;92290.59;2107559;28;20028;-89
2021/11/25 03:11:53;;;;;;;8.02;6.63;;;;;;;-3.11;100.00;92286.09;2101811;28;20031;-87
2021/11/25 03:12:54;;;;;;;8.32;6.45;;;;;;;-3.11;100.00;92287.97;2099712;28;20024;-88
2021/11/25 03:13:58;;;;;;;8.50;6.30;;;;;;;-2.96;100.00;92287.06;2104016;28;20059;-88
2021/11/25 03:14:59;;;;;;;8.18;6.43;;;;;;;-3.07;100.00;92284.31;2099249;28;20071;-88
2021/11/25 03:16:00;;;;;;;8.65;7.00;;;;;;;-3.03;100.00;92281.72;2107665;28;20024;-91
2021/11/25 03:17:01;;;;;;;9.43;6.90;;;;;;;-3.18;100.00;92285.22;2108545;27;20090;-86
2021/11/25 03:18:03;;;;;;;8.95;6.63;;;;;;;-3.13;100.00;92282.31;2108180;27;20023;-88
2021/11/25 03:19:04;;;;;;;8.80;6.95;;;;;;;-2.97;100.00;92279.59;2099116;28;20048;-89
2021/11/25 03:20:07;;;;;;;9.57;7.20;;;;;;;-3.03;100.00;92276.50;2090757;28;20028;-87
2021/11/25 03:21:08;;;;;;;10.45;7.30;;;;;;;-3.07;100.00;92276.47;2107743;27;20463;-90
2021/11/25 03:22:09;;;;;;;7.95;6.55;;;;;;;-3.15;100.00;92277.44;2115849;28;20031;-87
2021/11/25 03:23:13;;;;;;;9.10;6.85;;;;;;;-3.02;100.00;92277.28;2098949;28;20028;-91
2021/11/25 03:24:17;;;;;;;9.18;7.28;;;;;;;-3.17;100.00;92279.66;2099657;28;20067;-88
2021/11/25 03:25:21;;;;;;;9.35;7.40;;;;;;;-3.07;100.00;92275.72;2107338;28;20027;-87
2021/11/25 03:26:26;;;;;;;10.82;7.15;;;;;;;-3.02;100.00;92277.28;2104064;28;20023;-89
2021/11/25 03:27:27;;;;;;;8.48;6.40;;;;;;;-2.96;100.00;92276.59;2108882;27;20491;-88
2021/11/25 03:28:33;;;;;;;9.30;6.63;;;;;;;-2.98;100.00;92275.47;2107399;28;20024;-88
2021/11/25 03:29:39;;;;;;;8.48;5.97;;;;;;;-3.11;100.00;92280.88;2108086;28;20028;-88
2021/11/25 03:31:30;;;;;;;7.85;6.82;;;;;;;-3.12;100.00;92284.56;2108758;27;20024;-86
2021/11/25 03:32:32;;;;;;;8.43;6.88;;;;;;;-3.08;100.00;92274.19;2106120;28;20077;-87
2021/11/25 03:33:34;;;;;;;10.38;6.53;;;;;;;-3.07;100.00;92279.06;2107580;28;20489;-87
2021/11/25 03:34:35;;;;;;;7.55;5.90;;;;;;;-3.02;100.00;92269.44;2124464;27;20024;-86
2021/11/25 03:35:37;;;;;;;7.93;5.75;;;;;;;-3.21;100.00;92276.22;2116665;27;20023;-89
2021/11/25 03:36:38;;;;;;;8.27;6.32;;;;;;;-3.13;100.00;92277.84;2099194;28;20028;-87
2021/11/25 03:37:40;;;;;;;9.32;6.90;;;;;;;-3.20;100.00;92269.16;2099008;28;20031;-89
2021/11/25 03:38:41;;;;;;;9.27;6.63;;;;;;;-3.17;100.00;92266.56;2099174;28;20055;-88
2021/11/25 03:39:42;;;;;;;9.50;6.75;;;;;;;-3.25;100.00;92264.97;2099165;28;20028;-88
2021/11/25 03:40:43;;;;;;;7.63;6.25;;;;;;;-3.33;100.00;92264.13;2106717;28;20016;-89
2021/11/25 03:41:45;;;;;;;7.82;6.55;;;;;;;-3.35;100.00;92265.56;2107470;27;20031;-86
2021/11/25 03:42:46;;;;;;;8.50;6.80;;;;;;;-3.37;100.00;92263.31;2105765;28;20027;-87
2021/11/25 03:43:49;;;;;;;8.90;6.68;;;;;;;-3.43;100.00;92258.69;2098981;28;20031;-87
2021/11/25 03:44:51;;;;;;;9.10;7.10;;;;;;;-3.41;100.00;92264.34;2099184;28;20454;-87
2021/11/25 03:45:53;;;;;;;8.05;6.57;;;;;;;-3.46;100.00;92264.66;2107135;28;20084;-88
2021/11/25 03:46:54;;;;;;;7.90;6.45;;;;;;;-3.52;100.00;92264.16;2107341;28;20617;-87
2021/11/25 03:47:55;;;;;;;8.27;6.13;;;;;;;-3.56;100.00;92271.19;2107409;28;20064;-87
2021/11/25 03:48:56;;;;;;;8.20;6.65;;;;;;;-3.53;100.00;92267.13;2098737;28;20020;-88
2021/11/25 03:49:57;;;;;;;8.35;7.07;;;;;;;-3.53;100.00;92265.25;2090470;28;20080;-89
2021/11/25 03:51:00;;;;;;;7.97;6.05;;;;;;;-3.48;100.00;92266.84;2090435;28;20366;-86
2021/11/25 03:52:15;;;;;;;7.43;6.25;;;;;;;-3.52;100.00;92260.78;2091229;28;20028;-86
2021/11/25 03:53:19;;;;;;;7.35;6.13;;;;;;;-3.60;100.00;92263.31;2100593;28;20516;-86
2021/11/25 03:54:20;;;;;;;8.18;6.00;;;;;;;-3.58;100.00;92261.09;2106850;28;20031;-89
2021/11/25 03:55:21;;;;;;;8.35;6.43;;;;;;;-3.63;100.00;92255.41;2090917;28;20017;-86
2021/11/25 03:56:24;;;;;;;7.97;6.55;;;;;;;-3.56;100.00;92263.34;2082413;28;20112;-87
2021/11/25 03:57:28;;;;;;;7.15;6.35;;;;;;;-3.60;100.00;92255.47;2108999;27;20027;-87
2021/11/25 03:58:36;;;;;;;8.25;6.63;;;;;;;-3.52;100.00;92250.34;2107121;28;20093;-90
2021/11/25 03:59:40;;;;;;;7.38;5.53;;;;;;;-3.63;100.00;92255.41;2099774;28;20020;-88
2021/11/25 04:00:44;;;;;;;7.50;6.35;;;;;;;-3.60;100.00;92260.69;2099675;28;20019;-86
2021/11/25 04:01:45;;;;;;;7.57;6.20;;;;;;;-3.42;100.00;92258.38;2107461;28;20031;-85
2021/11/25 04:02:47;;;;;;;8.32;6.57;;;;;;;-3.40;100.00;92260.63;2104138;28;20373;-85
2021/11/25 04:03:49;;;;;;;7.82;6.88;;;;;;;-3.42;100.00;92260.22;2090690;28;20056;-86
2021/11/25 04:04:50;;;;;;;9.60;6.38;;;;;;;-3.38;100.00;92261.03;2098668;28;20025;-87
2021/11/25 04:05:58;;;;;;;7.68;6.28;;;;;;;-3.32;100.00;92257.78;2090367;28;20051;-86
2021/11/25 04:07:05;;;;;;;8.25;5.88;;;;;;;-3.52;100.00;92258.94;2099652;28;20017;-87
2021/11/25 04:08:06;;;;;;;7.43;5.53;;;;;;;-3.41;100.00;92251.28;2099243;28;20025;-87
2021/11/25 04:09:07;;;;;;;7.63;5.78;;;;;;;-3.47;100.00;92247.44;2098542;28;20078;-86
2021/11/25 04:10:10;;;;;;;6.45;5.57;;;;;;;-3.58;100.00;92260.34;2082035;28;20049;-86
2021/11/25 04:11:11;;;;;;;8.32;6.30;;;;;;;-3.61;100.00;92253.94;2090812;28;20017;-87
2021/11/25 04:12:12;;;;;;;9.65;6.18;;;;;;;-3.57;100.00;92249.53;2098635;28;20380;-88
2021/11/25 04:13:40;;;;;;;6.60;5.53;;;;;;;-3.57;100.00;92254.75;2102922;28;20058;-88
2021/11/25 04:14:40;;;;;;;6.60;5.55;;;;;;;-3.65;100.00;92247.16;2109992;28;20019;-86
2021/11/25 04:15:42;;;;;;;7.65;5.93;;;;;;;-3.71;100.00;92253.78;2098689;28;20195;-87
2021/11/25 04:16:42;;;;;;;6.97;5.70;;;;;;;-3.78;100.00;92243.19;2098633;28;20036;-87
2021/11/25 04:17:44;;;;;;;7.70;5.97;;;;;;;-3.72;100.00;92245.19;2098551;28;20184;-87
2021/11/25 04:18:45;;;;;;;6.97;5.63;;;;;;;-3.80;100.00;92248.78;2090363;28;20017;-85
2021/11/25 04:19:46;;;;;;;6.78;6.00;;;;;;;-3.78;100.00;92246.56;2098642;28;20389;-89
2021/11/25 04:20:51;;;;;;;8.07;5.93;;;;;;;-3.76;100.00;92248.84;2099109;28;20067;-86
2021/11/25 04:21:52;;;;;;;7.55;5.82;;;;;;;-3.75;100.00;92245.13;2090910;28;20031;-91
2021/11/25 04:22:54;;;;;;;6.57;5.75;;;;;;;-3.78;100.00;92245.81;2090428;28;20025;-87
2021/11/25 04:23:55;;;;;;;8.10;6.40;;;;;;;-3.87;100.00;92244.16;2098726;28;20027;-89
2021/11/25 04:24:57;;;;;;;6.20;5.57;;;;;;;-3.84;100.00;92258.41;2098739;28;20052;-88
2021/11/25 04:25:58;;;;;;;7.97;5.63;;;;;;;-3.83;100.00;92242.38;2098983;28;20461;-87
2021/11/25 04:26:59;;;;;;;7.32;5.78;;;;;;;-3.72;100.00;92247.03;2098395;28;20024;-90
2021/11/25 04:28:02;;;;;;;7.13;5.78;;;;;;;-3.69;100.00;92239.25;2106862;28;20468;-88
2021/11/25 04:29:03;;;;;;;7.40;5.50;;;;;;;-3.68;100.00;92246.00;2115319;28;20054;-86
2021/11/25 04:30:11;;;;;;;7.68;5.88;;;;;;;-3.72;100.00;92244.44;2098594;28;20535;-86
2021/11/25 04:35:32;;;;;;;6.95;5.07;;;;;;;-4.01;100.00;92235.34;2111825;28;20019;-90
2021/11/25 04:36:33;;;;;;;6.13;4.70;;;;;;;-4.01;100.00;92237.97;2098603;28;20021;-84
2021/11/25 04:37:34;;;;;;;7.03;5.82;;;;;;;-4.09;100.00;92237.81;2090226;28;20102;-88
2021/11/25 04:38:35;;;;;;;5.63;4.90;;;;;;;-4.13;100.00;92234.38;2098446;28;20054;-87
2021/11/25 04:39:36;;;;;;;8.15;5.80;;;;;;;-4.17;100.00;92233.59;2098479;28;20028;-87
2021/11/25 04:40:44;;;;;;;7.68;5.80;;;;;;;-4.07;100.00;92238.25;2098402;28;20381;-84
2021/11/25 04:41:46;;;;;;;7.13;4.90;;;;;;;-4.06;100.00;92233.78;2107725;28;20431;-85
2021/11/25 04:42:47;;;;;;;7.47;5.10;;;;;;;-4.07;100.00;92235.63;2106876;28;20462;-87
2021/11/25 04:43:48;;;;;;;7.80;5.75;;;;;;;-4.09;100.00;92237.81;2098330;28;20070;-86
2021/11/25 04:44:49;;;;;;;7.97;5.93;;;;;;;-4.06;100.00;92237.13;2098419;28;20053;-88
2021/11/25 04:45:52;;;;;;;8.40;6.22;;;;;;;-4.09;100.00;92239.69;2098380;28;20027;-87
2021/11/25 04:46:53;;;;;;;8.13;5.80;;;;;;;-4.21;100.00;92237.25;2090483;28;20021;-86
2021/11/25 04:47:54;;;;;;;8.50;6.43;;;;;;;-4.28;100.00;92237.84;2098307;28;20508;-86
2021/11/25 04:48:55;;;;;;;9.55;6.30;;;;;;;-4.22;100.00;92244.28;2098336;28;20057;-87
2021/11/25 04:49:56;;;;;;;9.93;6.50;;;;;;;-4.23;100.00;92247.25;2098461;28;20429;-87
2021/11/25 04:50:57;;;;;;;7.43;6.00;;;;;;;-4.17;100.00;92246.63;2090120;28;20028;-87
2021/11/25 04:52:00;;;;;;;8.38;5.63;;;;;;;-4.18;100.00;92247.72;2098680;28;20386;-87
2021/11/25 04:53:02;;;;;;;6.95;5.55;;;;;;;-4.09;100.00;92245.66;2098809;28;20020;-85
2021/11/25 04:54:03;;;;;;;6.63;5.32;;;;;;;-4.10;100.00;92244.13;2098462;28;20020;-86
2021/11/25 04:55:13;;;;;;;7.05;5.93;;;;;;;-4.12;100.00;92241.13;2100726;28;20024;-86
2021/11/25 04:56:13;;;;;;;8.02;6.03;;;;;;;-4.13;100.00;92242.22;2106649;28;20106;-87
2021/11/25 04:57:14;;;;;;;7.13;5.45;;;;;;;-4.07;100.00;92234.88;2113913;28;20814;-89